Terminal Aerodrome Forecast
Issued by NWS

Home | Current Version | Previous Version | Text Only | Print | Product List | Glossary On
Versions: 1 2 3 4 5 6 7 8 9 10 11 12 13
000
FTUS43 KDDC 171700
TAFHYS
TAF
KHYS 171720Z 1718/1818 13006KT P6SM SCT250
     FM180300 18008KT P6SM SCT250
     FM181600 18020G30KT P6SM SCT250=

USA.gov is the U.S. government's official web portal to all federal, state and local government web resources and services.